createdAt,value
2017-10-11T00:00:14.741Z,6.97
2017-10-11T00:02:42.303Z,6.47
2017-10-11T00:05:09.892Z,7.40
2017-10-11T00:07:38.259Z,8.60
2017-10-11T00:10:06.608Z,6.97
2017-10-11T00:12:34.199Z,8.10
2017-10-11T00:15:02.551Z,8.23
2017-10-11T00:17:30.154Z,7.13
2017-10-11T00:19:57.790Z,8.63
2017-10-11T00:22:25.407Z,7.50
2017-10-11T00:24:53.287Z,7.10
2017-10-11T00:27:20.848Z,7.73
2017-10-11T00:29:48.439Z,7.43
2017-10-11T00:32:15.996Z,8.37
2017-10-11T00:34:43.610Z,7.70
2017-10-11T00:37:11.199Z,8.50
2017-10-11T00:39:38.791Z,7.70
2017-10-11T00:42:06.399Z,7.20
2017-10-11T00:44:34.005Z,7.60
2017-10-11T00:47:01.648Z,7.33
2017-10-11T00:49:29.590Z,6.97
2017-10-11T00:51:57.830Z,6.50
2017-10-11T00:54:26.226Z,6.50
2017-10-11T00:56:54.573Z,7.03
2017-10-11T00:59:22.175Z,7.03
2017-10-11T01:01:49.802Z,7.50
2017-10-11T01:04:17.411Z,6.70
2017-10-11T01:19:45.030Z,6.47
2017-10-11T01:22:13.425Z,6.13
2017-10-11T01:24:40.995Z,6.60
2017-10-11T01:27:08.562Z,7.10
2017-10-11T01:29:36.146Z,6.83
2017-10-11T01:32:03.749Z,6.03
2017-10-11T01:34:32.081Z,6.87
2017-10-11T01:36:59.698Z,7.57
2017-10-11T01:39:28.064Z,6.50
2017-10-11T01:41:55.639Z,6.77
2017-10-11T01:44:24.031Z,7.60
2017-10-11T01:46:51.670Z,7.57
2017-10-11T01:49:20.025Z,8.13
2017-10-11T01:51:47.607Z,8.33
2017-10-11T01:54:15.202Z,7.80
2017-10-11T01:56:42.780Z,6.77
2017-10-11T01:59:10.369Z,6.23
2017-10-11T02:01:37.980Z,6.10
2017-10-11T02:04:05.598Z,6.23
2017-10-11T02:06:33.182Z,5.40
2017-10-11T02:09:01.521Z,5.80
2017-10-11T02:11:29.119Z,5.63
2017-10-11T02:13:57.546Z,5.90
2017-10-11T02:16:25.200Z,5.50
2017-10-11T02:18:52.782Z,5.30
2017-10-11T02:21:20.345Z,4.70
2017-10-11T02:23:47.943Z,5.27
2017-10-11T02:26:15.497Z,4.77
2017-10-11T02:28:43.131Z,4.43
2017-10-11T02:31:10.741Z,4.20
2017-10-11T02:33:39.099Z,4.60
2017-10-11T02:36:07.029Z,5.20
2017-10-11T02:38:34.642Z,4.90
2017-10-11T02:41:03.013Z,4.40
2017-10-11T02:43:30.603Z,4.70
2017-10-11T02:45:58.226Z,7.10
2017-10-11T02:48:25.799Z,5.40
2017-10-11T02:50:53.441Z,5.00
2017-10-11T02:53:21.026Z,5.20
2017-10-11T02:55:49.374Z,5.47
2017-10-11T02:58:16.990Z,5.97
2017-10-11T03:00:45.410Z,6.37
2017-10-11T03:03:13.051Z,5.33
2017-10-11T03:05:40.636Z,5.67
2017-10-11T03:08:08.342Z,7.13
2017-10-11T03:10:36.674Z,4.77
2017-10-11T03:13:05.097Z,5.40
2017-10-11T03:15:32.756Z,5.20
2017-10-11T03:18:00.388Z,4.87
2017-10-11T03:20:27.985Z,4.97
2017-10-11T03:22:56.350Z,4.70
2017-10-11T03:25:23.914Z,5.67
2017-10-11T03:27:51.530Z,4.43
2017-10-11T03:30:19.099Z,4.80
2017-10-11T03:32:46.704Z,5.10
2017-10-11T03:35:14.314Z,6.20
2017-10-11T03:37:41.910Z,5.80
2017-10-11T03:40:09.520Z,7.57
2017-10-11T03:42:37.134Z,5.83
2017-10-11T03:45:04.761Z,4.23
2017-10-11T03:47:32.756Z,4.90
2017-10-11T03:50:00.370Z,5.70
2017-10-11T03:52:28.744Z,6.37
2017-10-11T03:54:57.456Z,5.97
2017-10-11T03:57:25.044Z,5.83
2017-10-11T03:59:52.626Z,5.63
2017-10-11T04:02:21.036Z,4.90
2017-10-11T04:04:49.379Z,5.33
2017-10-11T04:07:17.011Z,5.80
2017-10-11T04:09:44.602Z,5.00
2017-10-11T04:12:12.482Z,5.97
2017-10-11T04:14:40.050Z,4.63
2017-10-11T04:17:08.450Z,5.00
2017-10-11T04:19:36.034Z,6.50
2017-10-11T04:22:03.591Z,4.57
2017-10-11T04:24:31.518Z,5.30
2017-10-11T04:26:59.114Z,5.80
2017-10-11T04:29:32.330Z,6.30
2017-10-11T04:31:59.919Z,5.93
2017-10-11T04:34:27.509Z,7.43
2017-10-11T04:36:55.878Z,5.93
2017-10-11T04:39:24.266Z,5.90
2017-10-11T04:41:52.586Z,5.40
2017-10-11T04:44:20.182Z,6.07
2017-10-11T04:46:47.831Z,6.20
2017-10-11T04:49:16.116Z,5.83
2017-10-11T04:51:44.375Z,6.37
2017-10-11T04:54:12.031Z,6.03
2017-10-11T04:56:39.602Z,5.93
2017-10-11T04:59:07.449Z,5.80
2017-10-11T05:01:35.793Z,5.10
2017-10-11T05:04:04.168Z,6.00
2017-10-11T05:06:32.491Z,5.40
2017-10-11T05:09:00.886Z,5.40
2017-10-11T05:11:28.533Z,5.77
2017-10-11T05:13:56.123Z,6.80
2017-10-11T05:16:23.694Z,6.67
2017-10-11T05:18:51.322Z,6.10
2017-10-11T05:21:18.947Z,5.83
2017-10-11T05:23:47.343Z,5.67
2017-10-11T05:26:14.949Z,5.53
2017-10-11T05:28:42.540Z,6.20
2017-10-11T05:31:10.908Z,6.00
2017-10-11T05:33:39.211Z,6.00
2017-10-11T05:36:06.828Z,6.93
2017-10-11T05:38:34.413Z,7.03
2017-10-11T05:41:02.790Z,7.23
2017-10-11T05:43:31.162Z,6.00
2017-10-11T05:45:58.798Z,8.00
2017-10-11T05:48:26.430Z,7.10
2017-10-11T05:50:54.002Z,6.57
2017-10-11T05:53:22.878Z,6.17
2017-10-11T05:55:50.442Z,5.27
2017-10-11T05:58:18.057Z,7.30
2017-10-11T06:00:45.989Z,7.10
2017-10-11T06:03:13.619Z,6.23
2017-10-11T06:05:41.186Z,6.00
2017-10-11T06:08:08.976Z,8.10
2017-10-11T06:10:36.586Z,7.37
2017-10-11T06:13:04.263Z,7.00
2017-10-11T06:15:32.640Z,7.17
2017-10-11T06:18:01.027Z,6.70
2017-10-11T06:20:29.367Z,7.90
2017-10-11T06:22:56.995Z,8.27
2017-10-11T06:25:25.346Z,6.70
2017-10-11T06:27:53.687Z,7.80
2017-10-11T06:30:21.271Z,8.23
2017-10-11T06:32:49.638Z,7.10
2017-10-11T06:35:17.366Z,8.10
2017-10-11T06:37:44.988Z,7.97
2017-10-11T06:40:12.662Z,8.27
2017-10-11T06:42:41.039Z,8.40
2017-10-11T06:45:08.650Z,8.10
2017-10-11T06:47:36.245Z,7.90
2017-10-11T06:50:04.604Z,7.03
2017-10-11T06:52:32.182Z,7.80
2017-10-11T06:55:00.558Z,7.50
2017-10-11T06:57:28.165Z,7.57
2017-10-11T06:59:55.783Z,6.90
2017-10-11T07:02:23.429Z,7.07
2017-10-11T07:04:51.018Z,7.67
2017-10-11T07:07:19.401Z,8.00
2017-10-11T07:09:47.760Z,7.70
2017-10-11T07:12:16.175Z,7.37
2017-10-11T07:14:43.775Z,6.77
2017-10-11T07:17:11.582Z,7.23
2017-10-11T07:19:39.163Z,7.03
2017-10-11T07:22:06.749Z,8.30
2017-10-11T07:24:34.538Z,7.10
2017-10-11T07:27:02.114Z,6.60
2017-10-11T07:29:29.726Z,6.77
2017-10-11T07:31:57.326Z,7.27
2017-10-11T07:34:24.914Z,6.40
2017-10-11T07:36:53.302Z,6.60
2017-10-11T07:39:21.662Z,6.30
2017-10-11T07:41:49.250Z,6.40
2017-10-11T07:44:16.873Z,6.37
2017-10-11T07:46:44.454Z,5.90
2017-10-11T07:49:12.822Z,6.57
2017-10-11T07:51:40.460Z,6.87
2017-10-11T07:54:08.059Z,6.30
2017-10-11T07:56:35.774Z,6.40
2017-10-11T07:59:03.343Z,6.80
2017-10-11T08:01:30.936Z,7.33
2017-10-11T08:03:58.533Z,5.93
2017-10-11T08:06:26.151Z,7.07
2017-10-11T08:08:53.771Z,6.73
2017-10-11T08:11:21.392Z,7.50
2017-10-11T08:13:49.753Z,7.10
2017-10-11T08:16:18.115Z,7.07
2017-10-11T08:18:45.680Z,6.70
2017-10-11T08:21:13.315Z,6.33
2017-10-11T08:23:40.945Z,7.33
2017-10-11T08:26:08.618Z,6.57
2017-10-11T08:28:36.250Z,6.43
2017-10-11T08:31:03.818Z,7.20
2017-10-11T08:33:32.154Z,6.30
2017-10-11T08:35:59.745Z,8.30
2017-10-11T08:38:27.501Z,6.67
2017-10-11T08:40:55.102Z,6.20
2017-10-11T08:43:22.845Z,6.90
2017-10-11T08:45:50.439Z,6.70
2017-10-11T08:48:18.013Z,7.60
2017-10-11T08:50:45.654Z,6.30
2017-10-11T08:53:13.224Z,5.80
2017-10-11T08:55:40.782Z,6.00
2017-10-11T08:58:08.389Z,7.93
2017-10-11T09:00:35.981Z,8.83
2017-10-11T09:03:03.586Z,5.93
2017-10-11T09:05:31.148Z,6.30
2017-10-11T09:07:58.743Z,5.23
2017-10-11T09:10:26.302Z,5.13
2017-10-11T09:12:54.776Z,5.07
2017-10-11T09:15:22.376Z,5.80
2017-10-11T09:17:50.717Z,6.30
2017-10-11T09:20:18.352Z,6.57
2017-10-11T09:22:45.940Z,6.00
2017-10-11T09:25:13.521Z,7.03
2017-10-11T09:27:41.085Z,5.20
2017-10-11T09:30:08.693Z,5.30
2017-10-11T09:32:36.283Z,5.40
2017-10-11T09:35:03.893Z,5.20
2017-10-11T09:37:32.238Z,5.07
2017-10-11T09:40:00.694Z,5.47
2017-10-11T09:42:28.259Z,5.53
2017-10-11T09:44:55.846Z,4.07
2017-10-11T09:47:23.459Z,4.80
2017-10-11T09:49:51.027Z,4.43
2017-10-11T09:52:18.682Z,4.00
2017-10-11T09:54:46.264Z,4.20
2017-10-11T09:57:13.861Z,4.50
2017-10-11T09:59:41.472Z,4.37
2017-10-11T10:02:09.082Z,5.73
2017-10-11T10:04:36.682Z,5.60
2017-10-11T10:07:04.303Z,6.30
2017-10-11T10:09:31.889Z,6.90
2017-10-11T10:12:00.261Z,7.37
2017-10-11T10:14:28.612Z,7.37
2017-10-11T10:16:56.206Z,6.30
2017-10-11T10:19:24.585Z,7.17
2017-10-11T10:21:52.958Z,7.73
2017-10-11T10:24:21.359Z,7.00
2017-10-11T10:26:51.456Z,7.10
2017-10-11T10:29:19.791Z,6.90
2017-10-11T10:31:47.393Z,6.83
2017-10-11T10:34:15.019Z,6.80
2017-10-11T10:36:42.624Z,8.07
2017-10-11T10:39:10.994Z,7.30
2017-10-11T10:41:39.464Z,7.83
2017-10-11T10:44:07.050Z,6.07
2017-10-11T10:46:35.477Z,5.97
2017-10-11T10:49:03.055Z,6.50
2017-10-11T10:51:30.650Z,7.70
2017-10-11T10:53:59.034Z,6.73
2017-10-11T10:56:27.439Z,6.27
2017-10-11T10:58:55.041Z,5.97
2017-10-11T11:01:22.623Z,6.23
2017-10-11T11:03:51.038Z,6.17
2017-10-11T11:06:18.638Z,6.10
2017-10-11T11:08:46.261Z,5.17
2017-10-11T11:11:13.937Z,8.50
2017-10-11T11:13:41.538Z,5.73
2017-10-11T11:16:09.115Z,6.30
2017-10-11T11:18:37.481Z,7.40
2017-10-11T11:21:05.062Z,6.10
2017-10-11T11:23:33.600Z,5.67
2017-10-11T11:26:01.233Z,8.03
2017-10-11T11:28:28.900Z,6.30
2017-10-11T11:30:56.515Z,5.83
2017-10-11T11:33:24.114Z,6.20
2017-10-11T11:35:51.686Z,5.70
2017-10-11T11:38:19.286Z,5.40
2017-10-11T11:40:46.859Z,5.77
2017-10-11T11:43:14.680Z,6.00
2017-10-11T11:45:42.312Z,5.13
2017-10-11T11:48:10.669Z,7.03
2017-10-11T11:50:38.246Z,6.87
2017-10-11T11:53:06.638Z,5.50
2017-10-11T11:55:34.258Z,5.30
2017-10-11T11:58:01.883Z,7.57
2017-10-11T12:00:29.465Z,6.20
2017-10-11T12:02:57.058Z,5.73
2017-10-11T12:05:24.662Z,6.03
2017-10-11T12:07:52.233Z,5.37
2017-10-11T12:10:19.866Z,5.37
2017-10-11T12:12:47.484Z,7.27
2017-10-11T12:15:15.090Z,5.90
2017-10-11T12:17:43.834Z,6.40
2017-10-11T12:20:11.435Z,6.97
2017-10-11T12:22:39.793Z,6.63
2017-10-11T12:25:07.379Z,5.90
2017-10-11T12:27:35.723Z,6.87
2017-10-11T12:30:03.592Z,7.07
2017-10-11T12:32:31.211Z,6.97
2017-10-11T12:34:59.167Z,6.77
2017-10-11T12:37:28.063Z,6.00
2017-10-11T12:39:55.650Z,5.30
2017-10-11T12:42:23.253Z,5.20
2017-10-11T12:44:50.824Z,6.50
2017-10-11T12:47:19.186Z,7.70
2017-10-11T12:49:46.982Z,5.60
2017-10-11T12:52:15.396Z,6.30
2017-10-11T12:54:43.012Z,6.83
2017-10-11T12:57:11.432Z,7.00
2017-10-11T12:59:39.010Z,5.47
2017-10-11T13:02:06.630Z,5.77
2017-10-11T13:04:34.218Z,5.70
2017-10-11T13:07:01.828Z,6.10
2017-10-11T13:09:29.459Z,6.30
2017-10-11T13:11:57.030Z,5.90
2017-10-11T13:14:24.642Z,6.00
2017-10-11T13:16:52.625Z,6.00
2017-10-11T13:19:20.214Z,6.50
2017-10-11T13:21:47.804Z,6.27
2017-10-11T13:24:15.493Z,6.43
2017-10-11T13:26:43.294Z,7.23
2017-10-11T13:29:11.770Z,6.67
2017-10-11T13:31:39.421Z,6.97
2017-10-11T13:34:07.007Z,6.37
2017-10-11T13:36:34.647Z,7.00
2017-10-11T13:39:02.256Z,6.33
2017-10-11T13:41:29.875Z,7.40
2017-10-11T13:43:57.449Z,6.60
2017-10-11T13:46:25.094Z,5.90
2017-10-11T13:48:52.693Z,6.20
2017-10-11T13:51:20.289Z,5.23
2017-10-11T13:53:47.934Z,5.60
2017-10-11T13:56:16.289Z,6.07
2017-10-11T13:58:43.887Z,6.50
2017-10-11T14:01:12.210Z,5.93
2017-10-11T14:03:39.936Z,6.70
2017-10-11T14:06:08.290Z,7.33
2017-10-11T14:08:35.887Z,6.30
2017-10-11T14:11:03.554Z,7.17
2017-10-11T14:13:31.134Z,6.67
2017-10-11T14:15:58.752Z,9.23
2017-10-11T14:18:27.097Z,5.57
2017-10-11T14:20:54.726Z,6.67
2017-10-11T14:23:22.359Z,7.00
2017-10-11T14:25:50.778Z,5.70
2017-10-11T14:28:18.370Z,7.40
2017-10-11T14:30:45.964Z,6.73
2017-10-11T14:33:14.592Z,6.53
2017-10-11T14:35:42.231Z,7.43
2017-10-11T14:38:09.802Z,7.60
2017-10-11T14:40:37.431Z,7.00
2017-10-11T14:43:05.770Z,5.70
2017-10-11T14:45:33.363Z,6.30
2017-10-11T14:48:02.000Z,6.87
2017-10-11T14:50:29.683Z,5.93
2017-10-11T14:52:57.314Z,5.90
2017-10-11T14:55:24.933Z,6.63
2017-10-11T14:57:53.179Z,7.30
2017-10-11T15:00:20.772Z,7.00
2017-10-11T15:02:48.844Z,7.37
2017-10-11T15:05:16.487Z,6.70
2017-10-11T15:07:44.076Z,6.00
2017-10-11T15:10:12.435Z,6.73
2017-10-11T15:12:40.051Z,6.03
2017-10-11T15:15:07.662Z,6.30
2017-10-11T15:17:35.283Z,6.30
2017-10-11T15:20:02.874Z,7.93
2017-10-11T15:22:30.441Z,8.30
2017-10-11T15:24:58.117Z,7.30
2017-10-11T15:27:26.575Z,8.00
2017-10-11T15:29:54.169Z,7.30
2017-10-11T15:32:26.431Z,8.10
2017-10-11T15:34:54.117Z,6.70
2017-10-11T15:37:22.741Z,6.90
2017-10-11T15:39:50.390Z,5.80
2017-10-11T15:42:18.023Z,6.50
2017-10-11T15:44:46.389Z,6.20
2017-10-11T15:56:59.013Z,7.33
2017-10-11T15:59:26.726Z,6.73
2017-10-11T16:01:54.333Z,7.30
2017-10-11T16:04:21.968Z,8.67
2017-10-11T16:06:50.333Z,8.20
2017-10-11T16:09:18.736Z,9.73
2017-10-11T16:11:46.339Z,8.73
2017-10-11T16:14:16.697Z,7.60
2017-10-11T16:16:44.944Z,8.43
2017-10-11T16:19:12.541Z,8.83
2017-10-11T16:21:40.948Z,10.60
2017-10-11T16:24:08.612Z,6.67
2017-10-11T16:26:36.242Z,5.70
2017-10-11T16:29:03.968Z,6.40
2017-10-11T16:31:31.588Z,6.30
2017-10-11T16:33:59.207Z,5.83
2017-10-11T16:36:27.138Z,5.93
2017-10-11T16:38:54.774Z,6.63
2017-10-11T16:41:23.162Z,8.20
2017-10-11T16:43:50.781Z,6.82
2017-10-11T16:46:18.364Z,6.23
2017-10-11T16:48:46.030Z,5.90
2017-10-11T16:51:14.423Z,4.80
2017-10-11T16:53:43.283Z,5.80
2017-10-11T16:56:10.900Z,5.70
2017-10-11T16:58:38.515Z,6.90
2017-10-11T17:01:06.151Z,5.93
2017-10-11T17:03:33.789Z,5.77
2017-10-11T17:06:01.370Z,7.90
2017-10-11T17:08:28.960Z,6.07
2017-10-11T17:10:56.600Z,5.87
2017-10-11T17:13:24.170Z,6.10
2017-10-11T17:15:51.800Z,4.90
2017-10-11T17:18:20.138Z,5.43
2017-10-11T17:20:48.967Z,5.77
2017-10-11T17:23:16.597Z,6.47
2017-10-11T17:25:45.098Z,5.43
2017-10-11T17:28:12.679Z,6.33
2017-10-11T17:30:40.272Z,5.40
2017-10-11T17:33:08.881Z,5.60
2017-10-11T17:35:36.479Z,5.93
2017-10-11T17:38:04.100Z,7.83
2017-10-11T17:40:31.726Z,6.77
2017-10-11T17:42:59.329Z,5.23
2017-10-11T17:45:26.935Z,8.13
2017-10-11T17:47:54.533Z,5.60
2017-10-11T17:50:22.168Z,6.13
2017-10-11T17:52:49.844Z,6.73
2017-10-11T17:55:17.530Z,7.90
2017-10-11T17:57:45.947Z,5.80
2017-10-11T18:00:13.592Z,5.47
2017-10-11T18:02:42.815Z,7.87
2017-10-11T18:05:10.463Z,7.00
2017-10-11T18:07:38.529Z,5.43
2017-10-11T18:10:06.189Z,6.93
2017-10-11T18:12:34.571Z,6.70
2017-10-11T18:15:02.947Z,5.90
2017-10-11T18:17:31.330Z,6.00
2017-10-11T18:19:59.689Z,6.97
2017-10-11T18:22:27.302Z,5.73
2017-10-11T18:24:54.923Z,6.00
2017-10-11T18:27:23.541Z,6.03
2017-10-11T18:29:51.154Z,7.87
2017-10-11T18:32:18.783Z,7.47
2017-10-11T18:34:47.946Z,6.97
2017-10-11T18:37:15.871Z,6.40
2017-10-11T18:39:43.577Z,6.83
2017-10-11T18:42:11.275Z,7.10
2017-10-11T18:44:38.896Z,8.30
2017-10-11T18:47:07.250Z,6.70
2017-10-11T18:49:34.834Z,7.50
2017-10-11T18:52:03.186Z,7.53
2017-10-11T18:54:31.614Z,7.00
2017-10-11T18:57:00.416Z,7.50
2017-10-11T18:59:28.093Z,6.50
2017-10-11T19:01:55.693Z,6.10
2017-10-11T19:04:23.313Z,6.90
2017-10-11T19:06:50.951Z,7.40
2017-10-11T19:09:18.606Z,7.30
2017-10-11T19:11:47.031Z,6.77
2017-10-11T19:14:14.675Z,6.97
2017-10-11T19:16:43.014Z,6.80
2017-10-11T19:19:11.436Z,6.80
2017-10-11T19:21:39.827Z,6.17
2017-10-11T19:24:07.435Z,7.20
2017-10-11T19:26:35.782Z,5.57
2017-10-11T19:29:03.613Z,6.30
2017-10-11T19:31:31.217Z,5.43
2017-10-11T19:33:58.836Z,6.60
2017-10-11T19:36:26.457Z,7.40
2017-10-11T19:38:54.045Z,6.10
2017-10-11T19:41:22.427Z,7.70
2017-10-11T19:43:50.778Z,6.73
2017-10-11T19:46:18.423Z,5.13
2017-10-11T19:48:46.009Z,5.67
2017-10-11T19:51:14.414Z,6.50
2017-10-11T19:53:42.017Z,6.47
2017-10-11T19:56:09.731Z,5.50
2017-10-11T19:58:38.095Z,5.03
2017-10-11T20:01:05.736Z,5.17
2017-10-11T20:03:33.293Z,5.70
2017-10-11T20:06:00.895Z,6.07
2017-10-11T20:08:28.539Z,5.07
2017-10-11T20:10:56.935Z,4.47
2017-10-11T20:13:25.320Z,4.17
2017-10-11T20:15:52.946Z,5.77
2017-10-11T20:18:20.626Z,5.10
2017-10-11T20:20:48.978Z,5.50
2017-10-11T20:23:16.574Z,4.97
2017-10-11T20:25:45.072Z,4.73
2017-10-11T20:28:13.488Z,6.37
2017-10-11T20:30:41.111Z,4.80
2017-10-11T20:33:09.476Z,4.93
2017-10-11T20:35:37.896Z,4.50
2017-10-11T20:38:05.549Z,4.60
2017-10-11T20:40:33.180Z,5.10
2017-10-11T20:43:01.569Z,4.80
2017-10-11T20:45:29.190Z,6.90
2017-10-11T20:47:57.151Z,5.60
2017-10-11T20:50:24.922Z,5.23
2017-10-11T20:52:52.643Z,6.27
2017-10-11T20:55:20.308Z,4.50
2017-10-11T20:57:47.982Z,4.80
2017-10-11T21:00:16.726Z,4.93
2017-10-11T21:02:44.351Z,6.83
2017-10-11T21:05:11.930Z,6.00
2017-10-11T21:07:39.601Z,5.43
2017-10-11T21:10:07.274Z,6.40
2017-10-11T21:12:35.036Z,5.20
2017-10-11T21:15:03.386Z,5.67
2017-10-11T21:17:31.252Z,4.73
2017-10-11T21:19:58.881Z,5.20
2017-10-11T21:22:26.526Z,5.50
2017-10-11T21:24:54.921Z,5.50
2017-10-11T21:27:22.564Z,5.10
2017-10-11T21:29:51.022Z,6.20
2017-10-11T21:32:18.603Z,4.23
2017-10-11T21:34:46.242Z,5.90
2017-10-11T21:37:13.909Z,5.37
2017-10-11T21:39:41.558Z,4.20
2017-10-11T21:42:09.150Z,4.10
2017-10-11T21:44:36.738Z,5.33
2017-10-11T21:47:04.377Z,4.80
2017-10-11T21:49:31.972Z,4.20
2017-10-11T21:51:59.601Z,4.10
2017-10-11T21:54:27.966Z,4.53
2017-10-11T21:56:55.593Z,4.27
2017-10-11T21:59:23.178Z,4.07
2017-10-11T22:01:51.717Z,4.13
2017-10-11T22:04:19.312Z,5.17
2017-10-11T22:06:46.929Z,4.63
2017-10-11T22:09:14.524Z,4.30
2017-10-11T22:11:42.189Z,4.03
2017-10-11T22:14:10.515Z,4.63
2017-10-11T22:16:38.863Z,3.93
2017-10-11T22:19:06.488Z,4.13
2017-10-11T22:21:34.198Z,5.23
2017-10-11T22:24:01.794Z,3.67
2017-10-11T22:26:30.431Z,3.80
2017-10-11T22:28:58.045Z,4.50
2017-10-11T22:31:26.371Z,5.27
2017-10-11T22:33:53.979Z,4.13
2017-10-11T22:36:22.325Z,4.37
2017-10-11T22:38:50.195Z,4.30
2017-10-11T22:41:17.765Z,3.67
2017-10-11T22:43:45.461Z,4.50
2017-10-11T22:46:13.034Z,4.40
2017-10-11T22:48:41.389Z,4.20
2017-10-11T22:51:08.971Z,3.53
2017-10-11T22:53:36.527Z,3.20
2017-10-11T22:56:04.133Z,5.60
2017-10-11T22:58:31.708Z,3.90
2017-10-11T23:00:59.294Z,3.73
2017-10-11T23:03:27.607Z,3.60
2017-10-11T23:05:55.221Z,7.80
2017-10-11T23:08:23.662Z,3.90
2017-10-11T23:10:51.793Z,4.37
2017-10-11T23:13:19.471Z,3.50
2017-10-11T23:15:47.132Z,3.50
2017-10-11T23:18:14.783Z,5.03
2017-10-11T23:20:42.355Z,3.80
2017-10-11T23:23:09.961Z,3.93
2017-10-11T23:25:37.549Z,3.87
2017-10-11T23:28:06.048Z,3.80
2017-10-11T23:30:34.409Z,3.70
2017-10-11T23:33:02.755Z,3.93
2017-10-11T23:35:30.405Z,3.40
2017-10-11T23:37:58.258Z,3.27
2017-10-11T23:40:26.774Z,3.33
2017-10-11T23:42:54.335Z,3.50
2017-10-11T23:45:22.555Z,4.00
2017-10-11T23:47:51.850Z,3.80
2017-10-11T23:50:20.263Z,3.83
2017-10-11T23:52:47.887Z,4.63
2017-10-11T23:55:16.222Z,3.87
2017-10-11T23:57:43.813Z,3.87
